YMX weather

Montreal International (Mirabel) Airport
Montréal, Quebec, Canada

Public forecast

Using degrees Celsius for public forecast. Weather courtesy of forecast.io.

METAR (pilot weather report)

Retrieved 2019/05/22 17:00 UTC (8 minutes ago):

CYMX 221700Z VRB02KT 45SM FEW045 BKN250 18/03 A3024 RMK CU2CI5 SLP242 DENSITY ALT 300FT

TAF (pilot weather forecast)

Retrieved 2019/05/22 12:42 UTC (4 hours ago):

TAF CYMX 221138Z 2212/2312 VRB03KT P6SM SKC BECMG 2217/2219 19007KT FM222000 19007KT P6SM FEW040 BKN200 FM230000 19007KT P6SM FEW040 BKN160 BECMG 2302/2304 VRB03KT FM230600 VRB03KT P6SM BKN090 FM231100 10006KT P6SM BKN050 RMK NXT FCST BY 221800Z